createdAt,value
2018-06-03T00:00:41.932Z,89.83
2018-06-03T00:01:41.872Z,90.03
2018-06-03T00:02:41.814Z,90.03
2018-06-03T00:03:41.755Z,89.93
2018-06-03T00:04:41.692Z,90.03
2018-06-03T00:05:41.635Z,90.22
2018-06-03T00:06:41.580Z,89.93
2018-06-03T00:07:41.516Z,89.93
2018-06-03T00:08:41.457Z,89.36
2018-06-03T00:09:41.447Z,89.36
2018-06-03T00:10:41.335Z,89.26
2018-06-03T00:11:41.280Z,88.97
2018-06-03T00:12:41.219Z,88.78
2018-06-03T00:13:41.160Z,88.97
2018-06-03T00:14:41.098Z,89.36
2018-06-03T00:15:41.041Z,89.83
2018-06-03T00:16:40.979Z,89.50
2018-06-03T00:17:40.921Z,89.98
2018-06-03T00:18:40.929Z,90.27
2018-06-03T00:19:40.804Z,90.27
2018-06-03T00:20:40.762Z,89.69
2018-06-03T00:21:40.681Z,89.79
2018-06-03T00:22:40.622Z,90.27
2018-06-03T00:23:40.564Z,90.27
2018-06-03T00:24:40.505Z,89.69
2018-06-03T00:25:40.446Z,89.69
2018-06-03T00:26:40.383Z,90.17
2018-06-03T00:27:40.330Z,90.08
2018-06-03T00:28:40.263Z,90.75
2018-06-03T00:29:40.205Z,90.75
2018-06-03T00:30:40.146Z,90.37
2018-06-03T00:31:40.090Z,90.84
2018-06-03T00:32:40.023Z,90.94
2018-06-03T00:33:39.965Z,90.27
2018-06-03T00:34:39.907Z,90.08
2018-06-03T00:35:39.848Z,90.17
2018-06-03T00:36:39.789Z,90.94
2018-06-03T00:37:39.727Z,90.94
2018-06-03T00:38:39.669Z,91.13
2018-06-03T00:39:39.610Z,90.84
2018-06-03T00:40:39.549Z,90.94
2018-06-03T00:41:39.488Z,90.94
2018-06-03T00:42:39.430Z,90.84
2018-06-03T00:43:39.369Z,90.27
2018-06-03T00:44:39.311Z,90.84
2018-06-03T00:45:39.254Z,91.23
2018-06-03T00:46:39.190Z,91.04
2018-06-03T00:47:39.130Z,91.96
2018-06-03T00:48:39.071Z,91.09
2018-06-03T00:49:39.011Z,90.99
2018-06-03T00:50:38.956Z,91.57
2018-06-03T00:51:38.893Z,92.05
2018-06-03T00:52:38.831Z,91.86
2018-06-03T00:53:38.772Z,92.33
2018-06-03T00:54:38.715Z,92.14
2018-06-03T00:55:38.654Z,92.33
2018-06-03T00:56:38.594Z,92.43
2018-06-03T00:57:38.533Z,92.33
2018-06-03T00:58:38.476Z,91.76
2018-06-03T00:59:38.413Z,92.24
2018-06-03T01:00:38.353Z,92.72
2018-06-03T01:01:38.296Z,93.30
2018-06-03T01:02:38.235Z,93.39
2018-06-03T01:03:38.175Z,92.43
2018-06-03T01:04:38.113Z,93.25
2018-06-03T01:05:38.049Z,93.01
2018-06-03T01:06:37.994Z,93.87
2018-06-03T01:07:37.938Z,93.54
2018-06-03T01:08:37.873Z,94.12
2018-06-03T01:09:37.814Z,94.49
2018-06-03T01:10:37.753Z,94.59
2018-06-03T01:11:37.695Z,94.59
2018-06-03T01:12:37.633Z,93.92
2018-06-03T01:13:37.575Z,94.79
2018-06-03T01:14:37.513Z,94.79
2018-06-03T01:15:37.455Z,94.88
2018-06-03T01:16:37.393Z,95.07
2018-06-03T01:17:37.332Z,94.98
2018-06-03T01:18:37.276Z,94.59
2018-06-03T01:19:37.214Z,94.79
2018-06-03T01:20:37.153Z,94.79
2018-06-03T01:21:37.094Z,94.79
2018-06-03T01:22:37.033Z,94.98
2018-06-03T01:23:36.973Z,94.31
2018-06-03T01:24:36.912Z,94.69
2018-06-03T01:25:36.852Z,95.55
2018-06-03T01:26:36.794Z,94.98
2018-06-03T01:27:36.733Z,95.65
2018-06-03T01:28:36.672Z,95.17
2018-06-03T01:29:36.617Z,95.07
2018-06-03T01:30:36.552Z,95.26
2018-06-03T01:31:36.493Z,95.51
2018-06-03T01:32:36.433Z,95.89
2018-06-03T01:33:36.372Z,95.89
2018-06-03T01:34:36.312Z,96.08
2018-06-03T01:35:36.251Z,96.47
2018-06-03T01:36:36.190Z,96.27
2018-06-03T01:37:36.136Z,95.79
2018-06-03T01:38:36.072Z,95.60
2018-06-03T01:39:36.013Z,96.56
2018-06-03T01:40:35.951Z,97.04
2018-06-03T01:41:35.890Z,97.42
2018-06-03T01:42:35.837Z,97.52
2018-06-03T01:43:35.771Z,97.23
2018-06-03T01:44:35.709Z,98.28
2018-06-03T01:45:35.650Z,97.61
2018-06-03T01:46:35.589Z,97.90
2018-06-03T01:47:35.528Z,98.00
2018-06-03T01:48:35.472Z,97.52
2018-06-03T01:49:35.406Z,98.00
2018-06-03T01:50:35.348Z,98.10
2018-06-03T01:51:35.288Z,97.71
2018-06-03T01:52:35.235Z,97.61
2018-06-03T01:53:35.165Z,98.10
2018-06-03T01:54:35.107Z,98.19
2018-06-03T01:55:35.046Z,97.61
2018-06-03T01:56:34.984Z,97.81
2018-06-03T01:57:34.925Z,97.81
2018-06-03T01:58:34.865Z,98.28
2018-06-03T01:59:34.805Z,97.33
2018-06-03T02:00:34.745Z,98.05
2018-06-03T02:01:34.684Z,97.47
2018-06-03T02:02:34.624Z,97.95
2018-06-03T02:03:34.564Z,97.85
2018-06-03T02:04:34.505Z,98.33
2018-06-03T02:05:34.441Z,98.24
2018-06-03T02:06:34.381Z,97.95
2018-06-03T02:07:34.321Z,98.05
2018-06-03T02:08:34.260Z,97.28
2018-06-03T02:09:34.200Z,97.38
2018-06-03T02:10:34.143Z,97.28
2018-06-03T02:11:34.080Z,97.56
2018-06-03T02:12:34.019Z,97.95
2018-06-03T02:13:33.959Z,97.95
2018-06-03T02:14:33.905Z,98.43
2018-06-03T02:15:33.837Z,97.85
2018-06-03T02:16:33.772Z,97.56
2018-06-03T02:17:33.715Z,97.38
2018-06-03T02:18:33.655Z,98.33
2018-06-03T02:19:33.597Z,98.62
2018-06-03T02:20:33.534Z,99.29
2018-06-03T02:21:33.472Z,99.77
2018-06-03T02:22:33.412Z,99.68
2018-06-03T02:23:33.351Z,99.77
2018-06-03T02:24:33.294Z,99.77
2018-06-03T02:25:33.232Z,99.01
2018-06-03T02:26:33.169Z,99.10
2018-06-03T02:27:33.109Z,99.10
2018-06-03T02:28:33.048Z,98.72
2018-06-03T02:29:32.986Z,99.10
2018-06-03T02:30:32.927Z,99.29
2018-06-03T02:31:32.867Z,99.10
2018-06-03T02:32:32.805Z,99.10
2018-06-03T02:33:32.745Z,99.19
2018-06-03T02:34:32.684Z,98.91
2018-06-03T02:35:32.625Z,98.62
2018-06-03T02:36:32.563Z,98.14
2018-06-03T02:37:32.502Z,98.62
2018-06-03T02:38:32.440Z,98.91
2018-06-03T02:39:32.381Z,99.68
2018-06-03T02:40:32.320Z,99.39
2018-06-03T02:41:32.260Z,99.10
2018-06-03T02:42:32.198Z,99.39
2018-06-03T02:43:32.144Z,99.01
2018-06-03T02:44:32.080Z,99.99
2018-06-03T02:45:32.016Z,99.99
2018-06-03T02:46:31.956Z,99.99
2018-06-03T02:47:31.895Z,99.99
2018-06-03T02:48:31.839Z,99.99
2018-06-03T02:49:31.772Z,99.99
2018-06-03T02:50:31.713Z,99.99
2018-06-03T02:51:31.652Z,99.99
2018-06-03T02:52:31.598Z,99.99
2018-06-03T02:53:31.529Z,99.99
2018-06-03T02:54:31.469Z,99.99
2018-06-03T02:55:31.409Z,99.99
2018-06-03T02:56:31.350Z,99.63
2018-06-03T02:57:31.286Z,99.53
2018-06-03T02:58:31.227Z,99.91
2018-06-03T02:59:31.165Z,99.82
2018-06-03T03:00:31.103Z,99.99
2018-06-03T03:01:31.052Z,99.99
2018-06-03T03:02:30.988Z,99.99
2018-06-03T03:03:30.922Z,99.99
2018-06-03T03:04:30.860Z,99.99
2018-06-03T03:05:30.801Z,99.91
2018-06-03T03:06:30.740Z,99.99
2018-06-03T03:07:30.679Z,99.99
2018-06-03T03:08:30.616Z,99.99
2018-06-03T03:09:30.557Z,99.99
2018-06-03T03:10:30.497Z,99.99
2018-06-03T03:11:30.436Z,99.99
2018-06-03T03:12:30.372Z,99.99
2018-06-03T03:13:30.318Z,99.99
2018-06-03T03:14:30.253Z,99.99
2018-06-03T03:15:30.192Z,99.99
2018-06-03T03:16:30.139Z,99.99
2018-06-03T03:17:30.068Z,99.99
2018-06-03T03:18:30.009Z,99.99
2018-06-03T03:19:29.947Z,99.99
2018-06-03T03:20:29.886Z,99.99
2018-06-03T03:21:29.823Z,99.99
2018-06-03T03:22:29.766Z,99.99
2018-06-03T03:23:29.705Z,99.99
2018-06-03T03:24:29.646Z,99.99
2018-06-03T03:25:29.581Z,99.99
2018-06-03T03:26:29.520Z,99.99
2018-06-03T03:27:29.460Z,99.99
2018-06-03T03:28:29.398Z,99.99
2018-06-03T03:29:29.338Z,99.99
2018-06-03T03:30:29.276Z,99.99
2018-06-03T03:31:29.215Z,99.99
2018-06-03T03:32:29.155Z,99.99
2018-06-03T03:33:29.093Z,99.99
2018-06-03T03:34:29.036Z,99.99
2018-06-03T03:35:28.974Z,99.99
2018-06-03T03:36:28.910Z,99.99
2018-06-03T03:37:28.851Z,99.99
2018-06-03T03:38:28.789Z,99.99
2018-06-03T03:39:28.729Z,99.99
2018-06-03T03:40:28.666Z,99.99
2018-06-03T03:41:28.605Z,99.99
2018-06-03T03:42:28.547Z,99.99
2018-06-03T03:43:28.486Z,99.99
2018-06-03T03:44:28.421Z,99.99
2018-06-03T03:45:28.361Z,99.99
2018-06-03T03:46:28.300Z,99.99
2018-06-03T03:47:28.239Z,99.99
2018-06-03T03:48:28.179Z,99.99
2018-06-03T03:49:28.122Z,99.99
2018-06-03T03:50:28.065Z,99.99
2018-06-03T03:51:27.993Z,99.99
2018-06-03T03:52:27.933Z,99.99
2018-06-03T03:53:27.874Z,99.99
2018-06-03T03:54:27.812Z,99.99
2018-06-03T03:55:27.756Z,99.99
2018-06-03T03:56:27.689Z,99.99
2018-06-03T03:57:27.631Z,99.99
2018-06-03T03:58:27.571Z,99.99
2018-06-03T03:59:27.508Z,99.99
2018-06-03T04:00:27.458Z,99.99
2018-06-03T04:01:27.384Z,99.99
2018-06-03T04:02:27.323Z,99.99
2018-06-03T04:03:27.264Z,99.99
2018-06-03T04:04:27.203Z,99.99
2018-06-03T04:05:27.139Z,99.99
2018-06-03T04:06:27.079Z,99.99
2018-06-03T04:07:27.019Z,99.99
2018-06-03T04:08:26.956Z,99.99
2018-06-03T04:09:26.898Z,99.99
2018-06-03T04:10:26.836Z,99.99
2018-06-03T04:11:26.774Z,99.99
2018-06-03T04:12:26.713Z,99.99
2018-06-03T04:13:26.651Z,99.99
2018-06-03T04:14:26.590Z,99.99
2018-06-03T04:15:26.533Z,99.99
2018-06-03T04:16:26.468Z,99.99
2018-06-03T04:17:26.406Z,99.99
2018-06-03T04:18:26.347Z,99.99
2018-06-03T04:19:26.286Z,99.99
2018-06-03T04:20:26.223Z,99.99
2018-06-03T04:21:26.161Z,99.99
2018-06-03T04:22:26.107Z,99.99
2018-06-03T04:23:26.044Z,99.99
2018-06-03T04:24:25.981Z,99.99
2018-06-03T04:25:25.919Z,99.99
2018-06-03T04:26:25.859Z,99.99
2018-06-03T04:27:25.797Z,99.99
2018-06-03T04:28:25.736Z,99.29
2018-06-03T04:29:25.674Z,99.99
2018-06-03T04:30:25.616Z,99.96
2018-06-03T04:31:25.555Z,99.99
2018-06-03T04:32:25.492Z,99.48
2018-06-03T04:33:25.432Z,99.48
2018-06-03T04:34:25.373Z,99.10
2018-06-03T04:35:25.314Z,98.43
2018-06-03T04:36:25.249Z,98.19
2018-06-03T04:37:25.188Z,98.48
2018-06-03T04:38:25.129Z,97.90
2018-06-03T04:39:25.066Z,98.77
2018-06-03T04:40:25.006Z,98.10
2018-06-03T04:41:25.003Z,97.71
2018-06-03T04:42:24.883Z,98.19
2018-06-03T04:43:24.823Z,97.52
2018-06-03T04:44:24.762Z,97.90
2018-06-03T04:45:24.703Z,97.71
2018-06-03T04:46:24.641Z,97.61
2018-06-03T04:47:24.580Z,96.75
2018-06-03T04:48:24.518Z,97.23
2018-06-03T04:49:24.458Z,95.46
2018-06-03T04:50:24.396Z,95.46
2018-06-03T04:51:24.337Z,95.26
2018-06-03T04:52:24.276Z,95.94
2018-06-03T04:53:24.215Z,95.26
2018-06-03T04:54:24.155Z,94.79
2018-06-03T04:55:24.096Z,93.73
2018-06-03T04:56:24.035Z,93.92
2018-06-03T04:57:23.973Z,93.92
2018-06-03T04:58:23.915Z,94.12
2018-06-03T04:59:23.854Z,93.44
2018-06-03T05:00:23.792Z,93.44
2018-06-03T05:01:23.732Z,93.01
2018-06-03T05:02:23.671Z,92.91
2018-06-03T05:03:23.611Z,93.49
2018-06-03T05:04:23.551Z,93.01
2018-06-03T05:05:23.489Z,93.49
2018-06-03T05:06:23.433Z,93.39
2018-06-03T05:07:23.371Z,94.07
2018-06-03T05:08:23.307Z,92.82
2018-06-03T05:09:23.250Z,92.63
2018-06-03T05:10:23.193Z,92.53
2018-06-03T05:11:23.129Z,92.72
2018-06-03T05:12:23.068Z,91.66
2018-06-03T05:13:23.009Z,91.90
2018-06-03T05:14:22.947Z,92.00
2018-06-03T05:15:22.895Z,91.66
2018-06-03T05:16:22.827Z,91.52
2018-06-03T05:17:22.768Z,91.42
2018-06-03T05:18:22.707Z,92.10
2018-06-03T05:19:22.647Z,92.86
2018-06-03T05:20:22.586Z,92.19
2018-06-03T05:21:22.526Z,91.52
2018-06-03T05:22:22.466Z,91.42
2018-06-03T05:23:22.413Z,90.94
2018-06-03T05:24:22.346Z,90.66
2018-06-03T05:25:22.286Z,90.94
2018-06-03T05:26:22.227Z,90.84
2018-06-03T05:27:22.166Z,90.75
2018-06-03T05:28:22.106Z,90.17
2018-06-03T05:29:22.052Z,91.04
2018-06-03T05:30:21.986Z,90.75
2018-06-03T05:31:21.928Z,90.56
2018-06-03T05:32:21.866Z,90.70
2018-06-03T05:33:21.807Z,90.31
2018-06-03T05:34:21.746Z,89.69
2018-06-03T05:35:21.687Z,90.12
2018-06-03T05:36:21.627Z,90.12
2018-06-03T05:37:21.568Z,90.41
2018-06-03T05:38:21.509Z,90.03
2018-06-03T05:39:21.448Z,89.16
2018-06-03T05:40:21.387Z,89.74
2018-06-03T05:41:21.328Z,89.54
2018-06-03T05:42:21.270Z,89.54
2018-06-03T05:43:21.211Z,89.74
2018-06-03T05:44:21.151Z,90.03
2018-06-03T05:45:21.090Z,90.12
2018-06-03T05:46:21.031Z,89.83
2018-06-03T05:47:20.970Z,89.54
2018-06-03T05:48:20.911Z,89.54
2018-06-03T05:49:20.851Z,89.50
2018-06-03T05:50:20.793Z,89.30
2018-06-03T05:51:20.734Z,89.11
2018-06-03T05:52:20.671Z,88.44
2018-06-03T05:53:20.612Z,88.44
2018-06-03T05:54:20.556Z,88.44
2018-06-03T05:55:20.494Z,88.63
2018-06-03T05:56:20.434Z,87.48
2018-06-03T05:57:20.374Z,87.38
2018-06-03T05:58:20.315Z,87.29
2018-06-03T05:59:20.257Z,87.19
2018-06-03T06:00:20.196Z,86.75
2018-06-03T06:01:20.138Z,87.23
2018-06-03T06:02:20.080Z,86.85
2018-06-03T06:03:20.021Z,86.75
2018-06-03T06:04:19.964Z,86.46
2018-06-03T06:05:19.906Z,87.04
2018-06-03T06:06:19.843Z,87.33
2018-06-03T06:07:19.785Z,86.75
2018-06-03T06:08:19.725Z,86.08
2018-06-03T06:09:19.664Z,85.78
2018-06-03T06:10:19.606Z,85.64
2018-06-03T06:11:19.547Z,85.21
2018-06-03T06:12:19.488Z,85.44
2018-06-03T06:13:19.430Z,84.77
2018-06-03T06:14:19.369Z,84.29
2018-06-03T06:15:19.310Z,84.39
2018-06-03T06:16:19.251Z,84.39
2018-06-03T06:17:19.193Z,84.19
2018-06-03T06:18:19.132Z,83.91
2018-06-03T06:19:19.074Z,83.81
2018-06-03T06:20:19.015Z,83.95
2018-06-03T06:21:18.956Z,82.79
2018-06-03T06:22:18.898Z,82.98
2018-06-03T06:23:18.840Z,82.31
2018-06-03T06:24:18.779Z,82.89
2018-06-03T06:25:18.722Z,81.63
2018-06-03T06:26:18.662Z,81.73
2018-06-03T06:27:18.605Z,81.35
2018-06-03T06:28:18.544Z,81.29
2018-06-03T06:29:18.484Z,80.04
2018-06-03T06:30:18.429Z,79.75
2018-06-03T06:31:18.365Z,79.56
2018-06-03T06:32:18.306Z,78.88
2018-06-03T06:33:18.250Z,79.02
2018-06-03T06:34:18.189Z,78.79
2018-06-03T06:35:18.131Z,79.21
2018-06-03T06:36:18.074Z,79.56
2018-06-03T06:37:18.017Z,78.98
2018-06-03T06:38:17.957Z,79.17
2018-06-03T06:39:17.903Z,78.88
2018-06-03T06:40:17.837Z,77.48
2018-06-03T06:41:17.781Z,77.09
2018-06-03T06:42:17.724Z,76.80
2018-06-03T06:43:17.667Z,75.55
2018-06-03T06:44:17.610Z,75.93
2018-06-03T06:45:17.552Z,75.59
2018-06-03T06:46:17.489Z,75.78
2018-06-03T06:47:17.433Z,76.17
2018-06-03T06:48:17.374Z,77.28
2018-06-03T06:49:17.317Z,76.51
2018-06-03T06:50:17.256Z,76.42
2018-06-03T06:51:17.199Z,76.23
2018-06-03T06:52:17.140Z,76.42
2018-06-03T06:53:17.083Z,75.88
2018-06-03T06:54:17.037Z,76.26
2018-06-03T06:55:16.968Z,76.71
2018-06-03T06:56:16.908Z,75.68
2018-06-03T06:57:16.899Z,75.01
2018-06-03T06:58:16.795Z,75.68
2018-06-03T06:59:16.735Z,76.07
2018-06-03T07:00:16.707Z,75.68
2018-06-03T07:01:16.621Z,75.59
2018-06-03T07:02:16.560Z,74.91
2018-06-03T07:03:16.503Z,74.43
2018-06-03T07:04:16.447Z,74.47
2018-06-03T07:05:16.386Z,74.76
2018-06-03T07:06:16.334Z,74.47
2018-06-03T07:07:16.272Z,75.14
2018-06-03T07:08:16.247Z,74.47
2018-06-03T07:09:16.155Z,74.85
2018-06-03T07:10:16.099Z,75.05
2018-06-03T07:11:16.041Z,75.05
2018-06-03T07:12:15.982Z,74.95
2018-06-03T07:13:15.956Z,75.24
2018-06-03T07:14:15.866Z,75.72
2018-06-03T07:15:15.808Z,74.85
2018-06-03T07:16:15.752Z,74.76
2018-06-03T07:17:15.693Z,73.44
2018-06-03T07:18:15.637Z,73.83
2018-06-03T07:19:15.579Z,73.15
2018-06-03T07:20:15.520Z,73.54
2018-06-03T07:21:15.463Z,73.15
2018-06-03T07:22:15.405Z,71.70
2018-06-03T07:23:15.367Z,70.84
2018-06-03T07:24:15.289Z,70.06
2018-06-03T07:25:15.232Z,69.23
2018-06-03T07:26:15.176Z,68.36
2018-06-03T07:27:15.119Z,68.84
2018-06-03T07:28:15.060Z,67.59
2018-06-03T07:29:15.000Z,67.78
2018-06-03T07:30:14.944Z,67.69
2018-06-03T07:31:14.891Z,67.78
2018-06-03T07:32:14.828Z,67.88
2018-06-03T07:33:14.771Z,67.30
2018-06-03T07:34:14.713Z,67.11
2018-06-03T07:35:14.656Z,67.78
2018-06-03T07:36:14.596Z,68.20
2018-06-03T07:37:14.542Z,68.49
2018-06-03T07:38:14.489Z,68.88
2018-06-03T07:39:14.427Z,67.91
2018-06-03T07:40:14.369Z,67.82
2018-06-03T07:41:14.314Z,68.01
2018-06-03T07:42:14.254Z,66.88
2018-06-03T07:43:14.201Z,67.46
2018-06-03T07:44:14.139Z,66.30
2018-06-03T07:45:14.083Z,65.53
2018-06-03T07:46:14.028Z,66.43
2018-06-03T07:47:13.969Z,66.43
2018-06-03T07:48:13.912Z,66.14
2018-06-03T07:49:13.855Z,64.98
2018-06-03T07:50:13.797Z,64.11
2018-06-03T07:51:13.739Z,63.73
2018-06-03T07:52:13.684Z,65.47
2018-06-03T07:53:13.626Z,64.59
2018-06-03T07:54:13.570Z,63.92
2018-06-03T07:55:13.513Z,63.14
2018-06-03T07:56:13.471Z,62.79
2018-06-03T07:57:13.397Z,63.01
2018-06-03T07:58:13.341Z,63.21
2018-06-03T07:59:13.280Z,62.72
2018-06-03T08:00:13.222Z,62.14
2018-06-03T08:01:13.165Z,62.14
2018-06-03T08:02:13.109Z,62.63
2018-06-03T08:03:13.054Z,62.92
2018-06-03T08:04:12.995Z,62.63
2018-06-03T08:05:12.940Z,62.82
2018-06-03T08:06:12.881Z,61.66
2018-06-03T08:07:12.824Z,63.01
2018-06-03T08:08:12.768Z,62.34
2018-06-03T08:09:12.712Z,63.11
2018-06-03T08:10:12.656Z,62.92
2018-06-03T08:11:12.599Z,62.82
2018-06-03T08:12:12.543Z,62.40
2018-06-03T08:13:12.484Z,62.50
2018-06-03T08:14:12.429Z,62.59
2018-06-03T08:15:12.373Z,62.59
2018-06-03T08:16:12.315Z,62.21
2018-06-03T08:17:12.259Z,62.30
2018-06-03T08:18:12.206Z,62.79
2018-06-03T08:19:12.147Z,62.50
2018-06-03T08:20:12.092Z,62.34
2018-06-03T08:21:12.035Z,61.76
2018-06-03T08:22:11.978Z,60.30
2018-06-03T08:23:11.922Z,60.69
2018-06-03T08:24:11.869Z,62.34
2018-06-03T08:25:11.807Z,61.85
2018-06-03T08:26:11.751Z,61.56
2018-06-03T08:27:11.696Z,61.56
2018-06-03T08:28:11.638Z,61.49
2018-06-03T08:29:11.582Z,61.11
2018-06-03T08:30:11.527Z,59.84
2018-06-03T08:31:11.471Z,59.88
2018-06-03T08:32:11.412Z,59.88
2018-06-03T08:33:11.357Z,59.20
2018-06-03T08:34:11.300Z,58.91
2018-06-03T08:35:11.243Z,57.94
2018-06-03T08:36:11.189Z,59.30
2018-06-03T08:37:11.130Z,59.10
2018-06-03T08:38:11.075Z,58.33
2018-06-03T08:39:11.031Z,58.42
2018-06-03T08:40:10.962Z,58.36
2018-06-03T08:41:10.905Z,58.91
2018-06-03T08:42:10.851Z,58.52
2018-06-03T08:43:10.793Z,59.49
2018-06-03T08:44:10.737Z,59.69
2018-06-03T08:45:10.682Z,60.36
2018-06-03T08:46:10.624Z,57.45
2018-06-03T08:47:10.568Z,56.25
2018-06-03T08:48:10.516Z,55.57
2018-06-03T08:49:10.459Z,55.50
2018-06-03T08:50:10.401Z,55.69
2018-06-03T08:51:10.346Z,54.14
2018-06-03T08:52:10.332Z,54.17
2018-06-03T08:53:10.234Z,54.85
2018-06-03T08:54:10.179Z,53.59
2018-06-03T08:55:10.123Z,53.97
2018-06-03T08:56:10.068Z,53.10
2018-06-03T08:57:10.011Z,53.97
2018-06-03T08:58:09.955Z,53.30
2018-06-03T08:59:09.905Z,54.07
2018-06-03T09:00:09.845Z,54.05
2018-06-03T09:01:09.788Z,54.07
2018-06-03T09:02:09.736Z,54.14
2018-06-03T09:03:09.678Z,54.82
2018-06-03T09:04:09.622Z,55.87
2018-06-03T09:05:09.564Z,55.69
2018-06-03T09:06:09.511Z,55.60
2018-06-03T09:07:09.457Z,55.41
2018-06-03T09:08:09.399Z,55.21
2018-06-03T09:09:09.348Z,55.41
2018-06-03T09:10:09.292Z,55.50
2018-06-03T09:11:09.233Z,55.11
2018-06-03T09:12:09.178Z,55.44
2018-06-03T09:13:09.164Z,55.83
2018-06-03T09:14:09.069Z,55.42
2018-06-03T09:15:09.014Z,56.20
2018-06-03T09:16:08.958Z,57.26
2018-06-03T09:17:08.905Z,57.48
2018-06-03T09:18:08.847Z,54.72
2018-06-03T09:19:08.798Z,53.95
2018-06-03T09:20:08.737Z,54.07
2018-06-03T09:21:08.683Z,50.95
2018-06-03T09:22:08.627Z,52.74
2018-06-03T09:23:08.577Z,52.91
2018-06-03T09:24:08.517Z,54.34
2018-06-03T09:25:08.503Z,53.16
2018-06-03T09:26:08.410Z,49.63
2018-06-03T09:27:08.356Z,47.15
2018-06-03T09:28:08.299Z,47.10
2018-06-03T09:29:08.246Z,49.37
2018-06-03T09:30:08.193Z,51.84
2018-06-03T09:31:08.139Z,53.27
2018-06-03T09:32:08.084Z,54.90
2018-06-03T09:33:08.030Z,55.35
2018-06-03T09:34:07.978Z,55.54
2018-06-03T09:35:07.923Z,55.26
2018-06-03T09:36:07.868Z,53.97
2018-06-03T09:37:07.815Z,54.17
2018-06-03T09:38:07.762Z,51.40
2018-06-03T09:39:07.706Z,50.19
2018-06-03T09:40:07.652Z,47.80
2018-06-03T09:41:07.600Z,46.10
2018-06-03T09:42:07.556Z,45.32
2018-06-03T09:43:07.491Z,47.22
2018-06-03T09:44:07.440Z,48.54
2018-06-03T09:45:07.387Z,49.87
2018-06-03T09:46:07.333Z,50.04
2018-06-03T09:47:07.283Z,52.06
2018-06-03T09:48:07.282Z,51.93
2018-06-03T09:49:07.174Z,53.59
2018-06-03T09:50:07.119Z,53.08
2018-06-03T09:51:07.067Z,54.05
2018-06-03T09:52:07.017Z,54.50
2018-06-03T09:53:06.976Z,54.31
2018-06-03T09:54:06.909Z,55.54
2018-06-03T09:55:06.854Z,55.54
2018-06-03T09:56:06.801Z,55.35
2018-06-03T09:57:06.747Z,54.99
2018-06-03T09:58:06.693Z,52.52
2018-06-03T09:59:06.641Z,49.41
2018-06-03T10:00:06.586Z,47.05
2018-06-03T10:01:06.534Z,44.68
2018-06-03T10:02:06.481Z,42.16
2018-06-03T10:03:06.427Z,42.01
2018-06-03T10:04:06.373Z,40.27
2018-06-03T10:05:06.318Z,40.95
2018-06-03T10:06:06.265Z,40.86
2018-06-03T10:07:06.213Z,40.97
2018-06-03T10:08:06.161Z,40.19
2018-06-03T10:09:06.108Z,41.25
2018-06-03T10:10:06.056Z,40.97
2018-06-03T10:11:06.005Z,40.68
2018-06-03T10:12:05.956Z,40.68
2018-06-03T10:13:05.901Z,40.95
2018-06-03T10:14:05.850Z,40.86
2018-06-03T10:15:05.799Z,41.23
2018-06-03T10:16:05.761Z,43.22
2018-06-03T10:17:05.700Z,44.27
2018-06-03T10:18:05.648Z,45.78
2018-06-03T10:19:05.602Z,46.73
2018-06-03T10:20:05.547Z,46.93
2018-06-03T10:21:05.496Z,47.03
2018-06-03T10:22:05.450Z,45.90
2018-06-03T10:23:05.396Z,46.83
2018-06-03T10:24:05.345Z,47.10
2018-06-03T10:25:05.297Z,48.93
2018-06-03T10:26:05.246Z,49.29
2018-06-03T10:27:05.212Z,49.17
2018-06-03T10:28:05.142Z,50.04
2018-06-03T10:29:05.094Z,50.48
2018-06-03T10:30:05.042Z,51.35
2018-06-03T10:31:04.991Z,51.75
2018-06-03T10:32:04.936Z,52.81
2018-06-03T10:33:04.887Z,52.52
2018-06-03T10:34:04.836Z,53.95
2018-06-03T10:35:04.784Z,53.20
2018-06-03T10:36:04.731Z,53.85
2018-06-03T10:37:04.680Z,52.52
2018-06-03T10:38:04.625Z,53.17
2018-06-03T10:39:04.572Z,54.44
2018-06-03T10:40:04.522Z,53.00
2018-06-03T10:41:04.471Z,50.56
2018-06-03T10:42:04.416Z,49.07
2018-06-03T10:43:04.363Z,50.53
2018-06-03T10:44:04.310Z,51.38
2018-06-03T10:45:04.260Z,52.13
2018-06-03T10:46:04.207Z,52.91
2018-06-03T10:47:04.153Z,54.17
2018-06-03T10:48:04.100Z,54.34
2018-06-03T10:49:04.048Z,53.24
2018-06-03T10:50:03.996Z,53.92
2018-06-03T10:51:03.944Z,54.21
2018-06-03T10:52:03.886Z,54.21
2018-06-03T10:53:03.840Z,55.06
2018-06-03T10:54:03.779Z,55.74
2018-06-03T10:55:03.726Z,54.48
2018-06-03T10:56:03.672Z,54.77
2018-06-03T10:57:03.619Z,55.35
2018-06-03T10:58:03.564Z,55.64
2018-06-03T10:59:03.513Z,55.74
2018-06-03T11:00:03.460Z,55.35
2018-06-03T11:01:03.402Z,55.81
2018-06-03T11:02:03.350Z,55.81
2018-06-03T11:03:03.295Z,55.71
2018-06-03T11:04:03.301Z,56.29
2018-06-03T11:05:03.189Z,56.59
2018-06-03T11:06:03.134Z,56.97
2018-06-03T11:07:03.080Z,57.26
2018-06-03T11:08:03.024Z,57.55
2018-06-03T11:09:02.969Z,56.59
2018-06-03T11:10:02.917Z,56.59
2018-06-03T11:11:02.862Z,56.26
2018-06-03T11:12:02.805Z,56.36
2018-06-03T11:13:02.750Z,56.00
2018-06-03T11:14:02.695Z,55.81
2018-06-03T11:15:02.643Z,56.39
2018-06-03T11:16:02.585Z,55.44
2018-06-03T11:17:02.532Z,54.67
2018-06-03T11:18:02.479Z,53.89
2018-06-03T11:19:02.421Z,54.28
2018-06-03T11:20:02.368Z,54.19
2018-06-03T11:21:02.310Z,53.24
2018-06-03T11:22:02.259Z,52.86
2018-06-03T11:23:02.202Z,53.73
2018-06-03T11:24:02.147Z,52.66
2018-06-03T11:25:02.093Z,52.01
2018-06-03T11:26:02.039Z,52.50
2018-06-03T11:27:01.983Z,52.50
2018-06-03T11:28:01.926Z,53.49
2018-06-03T11:29:01.871Z,53.69
2018-06-03T11:30:01.810Z,53.17
2018-06-03T11:31:01.763Z,52.40
2018-06-03T11:32:01.704Z,53.08
2018-06-03T11:33:01.649Z,53.95
2018-06-03T11:34:01.597Z,53.66
2018-06-03T11:35:01.540Z,54.24
2018-06-03T11:36:01.488Z,52.86
2018-06-03T11:37:01.440Z,52.08
2018-06-03T11:38:01.374Z,52.76
2018-06-03T11:39:01.324Z,52.76
2018-06-03T11:40:01.263Z,52.18
2018-06-03T11:41:01.212Z,51.72
2018-06-03T11:42:01.159Z,52.01
2018-06-03T11:43:01.098Z,51.43
2018-06-03T11:44:01.041Z,50.94
2018-06-03T11:45:00.985Z,51.26
2018-06-03T11:46:00.932Z,49.71
2018-06-03T11:47:00.877Z,50.29
2018-06-03T11:48:00.820Z,50.29
2018-06-03T11:49:00.767Z,49.92
2018-06-03T11:50:00.711Z,47.88
2018-06-03T11:51:00.654Z,48.75
2018-06-03T11:52:00.600Z,47.30
2018-06-03T11:53:00.544Z,48.95
2018-06-03T11:54:00.490Z,49.24
2018-06-03T11:55:00.456Z,49.12
2018-06-03T11:56:00.380Z,49.99
2018-06-03T11:57:00.325Z,49.02
2018-06-03T11:58:00.271Z,48.93
2018-06-03T11:59:00.217Z,49.02
2018-06-03T12:00:00.160Z,49.12
2018-06-03T12:01:00.137Z,48.73
2018-06-03T12:02:00.050Z,48.93
2018-06-03T12:02:59.997Z,49.24
2018-06-03T12:03:59.937Z,50.12
2018-06-03T12:04:59.885Z,50.21
2018-06-03T12:05:59.830Z,49.44
2018-06-03T12:06:59.774Z,47.30
2018-06-03T12:07:59.719Z,47.13
2018-06-03T12:08:59.671Z,47.61
2018-06-03T12:09:59.608Z,46.94
2018-06-03T12:10:59.554Z,46.64
2018-06-03T12:11:59.498Z,46.45
2018-06-03T12:12:59.445Z,46.45
2018-06-03T12:13:59.388Z,46.94
2018-06-03T12:14:59.334Z,48.78
2018-06-03T12:15:59.279Z,47.71
2018-06-03T12:16:59.223Z,48.00
2018-06-03T12:17:59.168Z,46.84
2018-06-03T12:18:59.118Z,46.45
2018-06-03T12:19:59.058Z,47.23
2018-06-03T12:20:59.004Z,46.74
2018-06-03T12:21:58.949Z,46.35
2018-06-03T12:22:58.895Z,46.84
2018-06-03T12:23:58.839Z,45.77
2018-06-03T12:24:58.784Z,47.34
2018-06-03T12:25:58.728Z,46.96
2018-06-03T12:26:58.674Z,46.86
2018-06-03T12:27:58.619Z,46.47
2018-06-03T12:28:58.564Z,46.67
2018-06-03T12:29:58.508Z,46.86
2018-06-03T12:30:58.454Z,46.57
2018-06-03T12:31:58.400Z,45.89
2018-06-03T12:32:58.346Z,46.77
2018-06-03T12:33:58.291Z,47.05
2018-06-03T12:34:58.238Z,44.53
2018-06-03T12:35:58.234Z,46.08
2018-06-03T12:36:58.129Z,46.28
2018-06-03T12:37:58.076Z,46.06
2018-06-03T12:38:58.018Z,46.64
2018-06-03T12:39:57.963Z,47.23
2018-06-03T12:40:57.913Z,47.13
2018-06-03T12:41:57.854Z,48.00
2018-06-03T12:42:57.802Z,48.00
2018-06-03T12:43:57.744Z,46.91
2018-06-03T12:44:57.688Z,47.98
2018-06-03T12:45:57.636Z,47.96
2018-06-03T12:46:57.581Z,48.83
2018-06-03T12:47:57.525Z,48.54
2018-06-03T12:48:57.472Z,48.80
2018-06-03T12:49:57.416Z,48.90
2018-06-03T12:50:57.363Z,48.61
2018-06-03T12:51:57.310Z,47.74